sensor_id;sensor_type;location;lat;lon;timestamp;P1;durP1;ratioP1;P2;durP2;ratioP2
44384;SDS011;30101;32.778;34.994;2022-09-01T00:01:16;20.60;;;15.93;;
44384;SDS011;30101;32.778;34.994;2022-09-01T00:06:20;23.55;;;16.48;;
44384;SDS011;30101;32.778;34.994;2022-09-01T00:11:25;22.80;;;15.25;;
44384;SDS011;30101;32.778;34.994;2022-09-01T00:16:30;17.60;;;15.35;;
44384;SDS011;30101;32.778;34.994;2022-09-01T00:21:35;20.70;;;16.45;;
44384;SDS011;30101;32.778;34.994;2022-09-01T00:26:42;27.17;;;15.98;;
44384;SDS011;30101;32.778;34.994;2022-09-01T00:31:46;18.67;;;16.42;;
44384;SDS011;30101;32.778;34.994;2022-09-01T00:36:51;26.63;;;17.10;;
44384;SDS011;30101;32.778;34.994;2022-09-01T00:41:55;20.55;;;16.27;;
44384;SDS011;30101;32.778;34.994;2022-09-01T00:46:58;23.25;;;16.90;;
44384;SDS011;30101;32.778;34.994;2022-09-01T00:52:07;21.42;;;16.75;;
44384;SDS011;30101;32.778;34.994;2022-09-01T00:57:17;22.98;;;16.10;;
44384;SDS011;30101;32.778;34.994;2022-09-01T01:02:21;24.65;;;17.23;;
44384;SDS011;30101;32.778;34.994;2022-09-01T01:07:24;22.55;;;16.05;;
44384;SDS011;30101;32.778;34.994;2022-09-01T01:12:30;22.17;;;15.95;;
44384;SDS011;30101;32.778;34.994;2022-09-01T01:17:34;22.23;;;16.02;;
44384;SDS011;30101;32.778;34.994;2022-09-01T01:22:48;20.30;;;15.80;;
44384;SDS011;30101;32.778;34.994;2022-09-01T01:33:35;21.98;;;14.43;;
44384;SDS011;30101;32.778;34.994;2022-09-01T01:38:48;16.80;;;14.52;;
44384;SDS011;30101;32.778;34.994;2022-09-01T01:43:52;23.90;;;14.90;;
44384;SDS011;30101;32.778;34.994;2022-09-01T01:48:57;15.65;;;14.07;;
44384;SDS011;30101;32.778;34.994;2022-09-01T01:54:01;17.90;;;14.45;;
44384;SDS011;30101;32.778;34.994;2022-09-01T01:59:06;22.58;;;14.70;;
44384;SDS011;30101;32.778;34.994;2022-09-01T02:04:11;20.48;;;14.90;;
44384;SDS011;30101;32.778;34.994;2022-09-01T02:09:19;17.75;;;13.30;;
44384;SDS011;30101;32.778;34.994;2022-09-01T02:14:26;23.85;;;14.00;;
44384;SDS011;30101;32.778;34.994;2022-09-01T02:19:33;28.23;;;14.48;;
44384;SDS011;30101;32.778;34.994;2022-09-01T02:24:37;19.33;;;14.02;;
44384;SDS011;30101;32.778;34.994;2022-09-01T02:29:40;20.23;;;13.15;;
44384;SDS011;30101;32.778;34.994;2022-09-01T02:34:50;18.35;;;14.32;;
44384;SDS011;30101;32.778;34.994;2022-09-01T02:39:58;17.25;;;12.77;;
44384;SDS011;30101;32.778;34.994;2022-09-01T02:45:02;18.88;;;13.27;;
44384;SDS011;30101;32.778;34.994;2022-09-01T02:50:14;17.47;;;13.03;;
44384;SDS011;30101;32.778;34.994;2022-09-01T02:55:18;19.15;;;13.48;;
44384;SDS011;30101;32.778;34.994;2022-09-01T03:00:23;20.05;;;13.43;;
44384;SDS011;30101;32.778;34.994;2022-09-01T03:05:28;15.73;;;13.25;;
44384;SDS011;30101;32.778;34.994;2022-09-01T03:10:35;22.38;;;14.02;;
44384;SDS011;30101;32.778;34.994;2022-09-01T03:15:40;19.23;;;14.45;;
44384;SDS011;30101;32.778;34.994;2022-09-01T03:20:45;18.00;;;13.30;;
44384;SDS011;30101;32.778;34.994;2022-09-01T03:25:49;22.00;;;13.88;;
44384;SDS011;30101;32.778;34.994;2022-09-01T03:30:55;23.25;;;14.30;;
44384;SDS011;30101;32.778;34.994;2022-09-01T03:36:00;33.42;;;19.42;;
44384;SDS011;30101;32.778;34.994;2022-09-01T03:41:04;20.75;;;13.80;;
44384;SDS011;30101;32.778;34.994;2022-09-01T03:46:08;20.13;;;13.13;;
44384;SDS011;30101;32.778;34.994;2022-09-01T03:51:12;15.00;;;12.93;;
44384;SDS011;30101;32.778;34.994;2022-09-01T03:56:16;17.25;;;13.50;;
44384;SDS011;30101;32.778;34.994;2022-09-01T04:01:20;21.73;;;12.93;;
44384;SDS011;30101;32.778;34.994;2022-09-01T04:06:32;22.20;;;13.40;;
44384;SDS011;30101;32.778;34.994;2022-09-01T04:11:36;21.90;;;12.07;;
44384;SDS011;30101;32.778;34.994;2022-09-01T04:16:47;27.15;;;12.70;;
44384;SDS011;30101;32.778;34.994;2022-09-01T04:21:52;20.58;;;12.15;;
44384;SDS011;30101;32.778;34.994;2022-09-01T04:26:59;18.55;;;11.27;;
44384;SDS011;30101;32.778;34.994;2022-09-01T04:32:05;25.50;;;11.63;;
44384;SDS011;30101;32.778;34.994;2022-09-01T04:37:14;22.33;;;10.55;;
44384;SDS011;30101;32.778;34.994;2022-09-01T04:42:36;19.88;;;10.73;;
44384;SDS011;30101;32.778;34.994;2022-09-01T04:47:39;20.63;;;11.13;;
44384;SDS011;30101;32.778;34.994;2022-09-01T04:52:49;15.77;;;9.73;;
44384;SDS011;30101;32.778;34.994;2022-09-01T04:58:04;19.60;;;9.93;;
44384;SDS011;30101;32.778;34.994;2022-09-01T05:03:12;15.32;;;10.07;;
44384;SDS011;30101;32.778;34.994;2022-09-01T05:08:36;20.25;;;10.50;;
44384;SDS011;30101;32.778;34.994;2022-09-01T05:13:46;21.83;;;10.88;;
44384;SDS011;30101;32.778;34.994;2022-09-01T05:18:51;19.77;;;8.98;;
44384;SDS011;30101;32.778;34.994;2022-09-01T05:23:59;14.95;;;9.32;;
44384;SDS011;30101;32.778;34.994;2022-09-01T05:29:03;13.77;;;8.75;;
44384;SDS011;30101;32.778;34.994;2022-09-01T05:34:07;22.30;;;10.73;;
44384;SDS011;30101;32.778;34.994;2022-09-01T05:39:15;23.98;;;9.95;;
44384;SDS011;30101;32.778;34.994;2022-09-01T05:44:20;21.42;;;9.27;;
44384;SDS011;30101;32.778;34.994;2022-09-01T05:49:26;14.52;;;9.70;;
44384;SDS011;30101;32.778;34.994;2022-09-01T05:54:30;13.77;;;9.75;;
44384;SDS011;30101;32.778;34.994;2022-09-01T05:59:38;12.80;;;9.23;;
44384;SDS011;30101;32.778;34.994;2022-09-01T06:04:49;25.73;;;10.48;;
44384;SDS011;30101;32.778;34.994;2022-09-01T06:09:59;15.63;;;8.77;;
44384;SDS011;30101;32.778;34.994;2022-09-01T06:15:04;27.67;;;10.27;;
44384;SDS011;30101;32.778;34.994;2022-09-01T06:20:09;25.63;;;9.63;;
44384;SDS011;30101;32.778;34.994;2022-09-01T06:25:17;15.77;;;8.40;;
44384;SDS011;30101;32.778;34.994;2022-09-01T06:30:22;14.32;;;8.38;;
44384;SDS011;30101;32.778;34.994;2022-09-01T06:35:43;14.25;;;8.38;;
44384;SDS011;30101;32.778;34.994;2022-09-01T06:40:47;19.45;;;9.13;;
44384;SDS011;30101;32.778;34.994;2022-09-01T06:45:59;16.02;;;8.40;;
44384;SDS011;30101;32.778;34.994;2022-09-01T06:51:04;17.65;;;7.70;;
44384;SDS011;30101;32.778;34.994;2022-09-01T06:56:31;18.25;;;7.45;;
44384;SDS011;30101;32.778;34.994;2022-09-01T07:01:44;21.88;;;8.07;;
44384;SDS011;30101;32.778;34.994;2022-09-01T07:06:51;12.40;;;8.07;;
44384;SDS011;30101;32.778;34.994;2022-09-01T07:12:33;17.38;;;7.82;;
44384;SDS011;30101;32.778;34.994;2022-09-01T07:17:37;17.83;;;8.23;;
44384;SDS011;30101;32.778;34.994;2022-09-01T07:22:41;17.05;;;8.10;;
44384;SDS011;30101;32.778;34.994;2022-09-01T07:28:05;20.55;;;7.82;;
44384;SDS011;30101;32.778;34.994;2022-09-01T07:33:12;18.63;;;8.50;;
44384;SDS011;30101;32.778;34.994;2022-09-01T07:38:40;15.93;;;8.13;;
44384;SDS011;30101;32.778;34.994;2022-09-01T07:44:07;14.43;;;8.23;;
44384;SDS011;30101;32.778;34.994;2022-09-01T07:49:51;17.75;;;8.70;;
44384;SDS011;30101;32.778;34.994;2022-09-01T07:55:15;14.48;;;8.23;;
44384;SDS011;30101;32.778;34.994;2022-09-01T08:00:19;22.30;;;7.90;;
44384;SDS011;30101;32.778;34.994;2022-09-01T08:05:29;17.20;;;8.60;;
44384;SDS011;30101;32.778;34.994;2022-09-01T08:10:37;16.58;;;7.55;;
44384;SDS011;30101;32.778;34.994;2022-09-01T08:15:44;19.50;;;7.60;;
44384;SDS011;30101;32.778;34.994;2022-09-01T08:21:09;16.45;;;7.57;;
44384;SDS011;30101;32.778;34.994;2022-09-01T08:26:35;17.20;;;7.75;;
44384;SDS011;30101;32.778;34.994;2022-09-01T08:31:40;12.30;;;7.93;;
44384;SDS011;30101;32.778;34.994;2022-09-01T08:36:44;25.67;;;7.43;;
44384;SDS011;30101;32.778;34.994;2022-09-01T08:47:20;14.23;;;7.43;;
44384;SDS011;30101;32.778;34.994;2022-09-01T08:52:46;14.05;;;7.60;;
44384;SDS011;30101;32.778;34.994;2022-09-01T08:57:59;19.23;;;7.82;;
44384;SDS011;30101;32.778;34.994;2022-09-01T09:08:47;13.80;;;7.97;;
44384;SDS011;30101;32.778;34.994;2022-09-01T09:19:37;17.70;;;7.72;;
44384;SDS011;30101;32.778;34.994;2022-09-01T09:29:56;14.60;;;7.43;;
44384;SDS011;30101;32.778;34.994;2022-09-01T09:35:31;14.73;;;8.57;;
44384;SDS011;30101;32.778;34.994;2022-09-01T09:40:33;15.00;;;7.10;;
44384;SDS011;30101;32.778;34.994;2022-09-01T09:51:29;14.85;;;7.85;;
44384;SDS011;30101;32.778;34.994;2022-09-01T09:56:33;12.50;;;7.53;;
44384;SDS011;30101;32.778;34.994;2022-09-01T10:01:37;17.38;;;8.10;;
44384;SDS011;30101;32.778;34.994;2022-09-01T10:06:43;16.45;;;7.60;;
44384;SDS011;30101;32.778;34.994;2022-09-01T10:11:50;13.68;;;8.15;;
44384;SDS011;30101;32.778;34.994;2022-09-01T10:17:08;11.45;;;7.47;;
44384;SDS011;30101;32.778;34.994;2022-09-01T10:22:17;16.17;;;8.30;;
44384;SDS011;30101;32.778;34.994;2022-09-01T10:27:23;20.75;;;8.45;;
44384;SDS011;30101;32.778;34.994;2022-09-01T10:32:43;19.65;;;9.30;;
44384;SDS011;30101;32.778;34.994;2022-09-01T10:37:57;15.48;;;8.77;;
44384;SDS011;30101;32.778;34.994;2022-09-01T10:48:30;15.55;;;8.35;;
44384;SDS011;30101;32.778;34.994;2022-09-01T10:53:48;19.58;;;8.75;;
44384;SDS011;30101;32.778;34.994;2022-09-01T10:59:05;18.45;;;8.32;;
44384;SDS011;30101;32.778;34.994;2022-09-01T11:15:47;13.83;;;9.77;;
44384;SDS011;30101;32.778;34.994;2022-09-01T11:20:51;14.75;;;8.45;;
44384;SDS011;30101;32.778;34.994;2022-09-01T11:26:02;18.23;;;9.10;;
44384;SDS011;30101;32.778;34.994;2022-09-01T11:31:50;22.05;;;8.68;;
44384;SDS011;30101;32.778;34.994;2022-09-01T11:36:55;15.52;;;9.25;;
44384;SDS011;30101;32.778;34.994;2022-09-01T11:47:17;15.65;;;9.02;;
44384;SDS011;30101;32.778;34.994;2022-09-01T11:52:35;21.33;;;9.43;;
44384;SDS011;30101;32.778;34.994;2022-09-01T11:57:41;15.85;;;9.13;;
44384;SDS011;30101;32.778;34.994;2022-09-01T12:02:51;18.38;;;8.82;;
44384;SDS011;30101;32.778;34.994;2022-09-01T12:07:57;18.27;;;9.65;;
44384;SDS011;30101;32.778;34.994;2022-09-01T12:13:06;20.77;;;10.02;;
44384;SDS011;30101;32.778;34.994;2022-09-01T12:18:22;15.18;;;9.98;;
44384;SDS011;30101;32.778;34.994;2022-09-01T12:23:29;19.02;;;10.15;;
44384;SDS011;30101;32.778;34.994;2022-09-01T12:28:40;17.45;;;8.90;;
44384;SDS011;30101;32.778;34.994;2022-09-01T12:33:45;16.30;;;9.13;;
44384;SDS011;30101;32.778;34.994;2022-09-01T12:38:50;13.85;;;9.40;;
44384;SDS011;30101;32.778;34.994;2022-09-01T12:49:34;16.45;;;9.15;;
44384;SDS011;30101;32.778;34.994;2022-09-01T13:10:34;18.05;;;8.85;;
44384;SDS011;30101;32.778;34.994;2022-09-01T13:15:53;14.70;;;9.30;;
44384;SDS011;30101;32.778;34.994;2022-09-01T13:20:59;20.40;;;10.10;;
44384;SDS011;30101;32.778;34.994;2022-09-01T13:26:03;19.63;;;9.70;;
44384;SDS011;30101;32.778;34.994;2022-09-01T13:31:06;18.92;;;9.40;;
44384;SDS011;30101;32.778;34.994;2022-09-01T13:36:29;17.75;;;9.52;;
44384;SDS011;30101;32.778;34.994;2022-09-01T13:41:53;20.30;;;9.68;;
44384;SDS011;30101;32.778;34.994;2022-09-01T13:46:57;16.67;;;9.30;;
44384;SDS011;30101;32.778;34.994;2022-09-01T13:52:31;19.88;;;9.23;;
44384;SDS011;30101;32.778;34.994;2022-09-01T13:58:06;15.52;;;8.70;;
44384;SDS011;30101;32.778;34.994;2022-09-01T14:03:18;19.63;;;9.02;;
44384;SDS011;30101;32.778;34.994;2022-09-01T14:08:27;16.63;;;9.88;;
44384;SDS011;30101;32.778;34.994;2022-09-01T14:13:33;15.48;;;9.45;;
44384;SDS011;30101;32.778;34.994;2022-09-01T14:18:41;15.75;;;9.20;;
44384;SDS011;30101;32.778;34.994;2022-09-01T14:23:45;16.85;;;9.05;;
44384;SDS011;30101;32.778;34.994;2022-09-01T14:28:49;20.70;;;9.40;;
44384;SDS011;30101;32.778;34.994;2022-09-01T14:33:56;19.30;;;9.57;;
44384;SDS011;30101;32.778;34.994;2022-09-01T14:39:04;15.88;;;9.20;;
44384;SDS011;30101;32.778;34.994;2022-09-01T14:44:08;16.85;;;10.40;;
44384;SDS011;30101;32.778;34.994;2022-09-01T14:49:12;16.77;;;9.20;;
44384;SDS011;30101;32.778;34.994;2022-09-01T14:54:16;18.55;;;10.27;;
44384;SDS011;30101;32.778;34.994;2022-09-01T14:59:21;23.50;;;10.07;;
44384;SDS011;30101;32.778;34.994;2022-09-01T15:04:36;14.02;;;9.40;;
44384;SDS011;30101;32.778;34.994;2022-09-01T15:09:40;25.63;;;9.82;;
44384;SDS011;30101;32.778;34.994;2022-09-01T15:14:44;18.95;;;9.65;;
44384;SDS011;30101;32.778;34.994;2022-09-01T15:19:48;17.23;;;10.13;;
44384;SDS011;30101;32.778;34.994;2022-09-01T15:24:51;24.17;;;9.90;;
44384;SDS011;30101;32.778;34.994;2022-09-01T15:29:56;16.70;;;9.40;;
44384;SDS011;30101;32.778;34.994;2022-09-01T15:34:59;21.75;;;9.40;;
44384;SDS011;30101;32.778;34.994;2022-09-01T15:40:05;11.90;;;9.15;;
44384;SDS011;30101;32.778;34.994;2022-09-01T15:45:18;20.48;;;10.02;;
44384;SDS011;30101;32.778;34.994;2022-09-01T15:50:27;18.65;;;10.00;;
44384;SDS011;30101;32.778;34.994;2022-09-01T15:55:39;16.95;;;10.13;;
44384;SDS011;30101;32.778;34.994;2022-09-01T16:05:47;21.00;;;9.77;;
44384;SDS011;30101;32.778;34.994;2022-09-01T16:10:52;25.08;;;10.98;;
44384;SDS011;30101;32.778;34.994;2022-09-01T16:26:34;17.15;;;10.70;;
44384;SDS011;30101;32.778;34.994;2022-09-01T16:31:52;19.50;;;10.40;;
44384;SDS011;30101;32.778;34.994;2022-09-01T16:42:37;21.80;;;11.80;;
44384;SDS011;30101;32.778;34.994;2022-09-01T16:47:55;20.90;;;11.13;;
44384;SDS011;30101;32.778;34.994;2022-09-01T17:03:54;23.83;;;11.68;;
44384;SDS011;30101;32.778;34.994;2022-09-01T17:09:09;17.80;;;10.98;;
44384;SDS011;30101;32.778;34.994;2022-09-01T17:14:33;24.85;;;11.18;;
44384;SDS011;30101;32.778;34.994;2022-09-01T17:19:45;19.58;;;11.68;;
44384;SDS011;30101;32.778;34.994;2022-09-01T17:24:56;28.42;;;10.43;;
44384;SDS011;30101;32.778;34.994;2022-09-01T17:30:05;21.88;;;10.45;;
44384;SDS011;30101;32.778;34.994;2022-09-01T17:46:40;16.23;;;10.75;;
44384;SDS011;30101;32.778;34.994;2022-09-01T17:57:11;19.23;;;11.05;;
44384;SDS011;30101;32.778;34.994;2022-09-01T18:13:03;19.67;;;11.20;;
44384;SDS011;30101;32.778;34.994;2022-09-01T18:18:16;22.67;;;11.48;;
44384;SDS011;30101;32.778;34.994;2022-09-01T18:23:22;20.45;;;11.88;;
44384;SDS011;30101;32.778;34.994;2022-09-01T18:28:29;18.63;;;11.23;;
44384;SDS011;30101;32.778;34.994;2022-09-01T18:39:06;17.05;;;10.73;;
44384;SDS011;30101;32.778;34.994;2022-09-01T19:00:21;17.40;;;12.32;;
44384;SDS011;30101;32.778;34.994;2022-09-01T19:11:05;21.55;;;12.05;;
44384;SDS011;30101;32.778;34.994;2022-09-01T19:16:30;19.50;;;12.52;;
44384;SDS011;30101;32.778;34.994;2022-09-01T19:21:53;18.08;;;11.77;;
44384;SDS011;30101;32.778;34.994;2022-09-01T19:27:07;26.92;;;12.13;;
44384;SDS011;30101;32.778;34.994;2022-09-01T19:32:43;23.80;;;12.97;;
44384;SDS011;30101;32.778;34.994;2022-09-01T19:37:49;19.70;;;11.77;;
44384;SDS011;30101;32.778;34.994;2022-09-01T19:42:56;22.63;;;12.30;;
44384;SDS011;30101;32.778;34.994;2022-09-01T19:58:50;17.30;;;11.82;;
44384;SDS011;30101;32.778;34.994;2022-09-01T20:03:59;21.15;;;11.77;;
44384;SDS011;30101;32.778;34.994;2022-09-01T20:30:24;20.48;;;11.13;;
44384;SDS011;30101;32.778;34.994;2022-09-01T20:40:46;26.30;;;11.65;;
44384;SDS011;30101;32.778;34.994;2022-09-01T20:45:51;17.90;;;11.30;;
44384;SDS011;30101;32.778;34.994;2022-09-01T21:01:36;23.20;;;11.80;;
44384;SDS011;30101;32.778;34.994;2022-09-01T21:17:44;21.20;;;12.93;;
44384;SDS011;30101;32.778;34.994;2022-09-01T21:22:53;18.35;;;11.40;;
44384;SDS011;30101;32.778;34.994;2022-09-01T21:27:57;23.60;;;10.98;;
44384;SDS011;30101;32.778;34.994;2022-09-01T21:33:04;21.30;;;14.50;;
44384;SDS011;30101;32.778;34.994;2022-09-01T21:38:07;23.15;;;11.73;;
44384;SDS011;30101;32.778;34.994;2022-09-01T21:43:15;33.50;;;16.88;;
44384;SDS011;30101;32.778;34.994;2022-09-01T21:48:28;16.10;;;12.93;;
44384;SDS011;30101;32.778;34.994;2022-09-01T21:53:32;26.35;;;12.13;;
44384;SDS011;30101;32.778;34.994;2022-09-01T21:58:36;19.45;;;13.15;;
44384;SDS011;30101;32.778;34.994;2022-09-01T22:03:40;18.58;;;12.10;;
44384;SDS011;30101;32.778;34.994;2022-09-01T22:08:44;25.08;;;13.23;;
44384;SDS011;30101;32.778;34.994;2022-09-01T22:13:48;17.35;;;11.93;;
44384;SDS011;30101;32.778;34.994;2022-09-01T22:18:52;21.52;;;12.57;;
44384;SDS011;30101;32.778;34.994;2022-09-01T22:23:56;18.55;;;11.43;;
44384;SDS011;30101;32.778;34.994;2022-09-01T22:29:01;32.70;;;12.48;;
44384;SDS011;30101;32.778;34.994;2022-09-01T22:39:16;19.95;;;12.38;;
44384;SDS011;30101;32.778;34.994;2022-09-01T22:44:23;19.92;;;11.93;;
44384;SDS011;30101;32.778;34.994;2022-09-01T22:49:28;25.67;;;11.90;;
44384;SDS011;30101;32.778;34.994;2022-09-01T22:54:31;18.27;;;11.02;;
44384;SDS011;30101;32.778;34.994;2022-09-01T22:59:34;20.98;;;11.35;;
44384;SDS011;30101;32.778;34.994;2022-09-01T23:04:39;19.38;;;12.20;;
44384;SDS011;30101;32.778;34.994;2022-09-01T23:09:44;19.92;;;12.63;;
44384;SDS011;30101;32.778;34.994;2022-09-01T23:14:47;20.13;;;11.93;;
44384;SDS011;30101;32.778;34.994;2022-09-01T23:19:51;25.77;;;13.02;;
44384;SDS011;30101;32.778;34.994;2022-09-01T23:24:56;26.30;;;12.35;;
44384;SDS011;30101;32.778;34.994;2022-09-01T23:30:02;30.95;;;12.23;;
44384;SDS011;30101;32.778;34.994;2022-09-01T23:35:07;20.20;;;12.30;;
44384;SDS011;30101;32.778;34.994;2022-09-01T23:40:11;23.25;;;11.50;;
44384;SDS011;30101;32.778;34.994;2022-09-01T23:45:23;24.63;;;12.88;;
44384;SDS011;30101;32.778;34.994;2022-09-01T23:50:44;23.30;;;13.25;;
44384;SDS011;30101;32.778;34.994;2022-09-01T23:55:56;23.05;;;12.13;;
